createdAt,value
2023-05-20T00:01:30.048Z,47.57
2023-05-20T00:03:57.941Z,47.69
2023-05-20T00:06:25.272Z,47.89
2023-05-20T00:08:52.326Z,47.76
2023-05-20T00:11:19.342Z,47.65
2023-05-20T00:13:46.347Z,47.53
2023-05-20T00:16:13.430Z,47.63
2023-05-20T00:18:40.644Z,47.68
2023-05-20T00:21:07.765Z,47.39
2023-05-20T00:23:34.838Z,47.32
2023-05-20T00:26:02.046Z,47.69
2023-05-20T00:28:30.623Z,47.76
2023-05-20T00:30:57.784Z,47.95
2023-05-20T00:33:24.854Z,48.22
2023-05-20T00:35:52.162Z,48.42
2023-05-20T00:38:19.338Z,48.32
2023-05-20T00:40:46.641Z,48.55
2023-05-20T00:43:13.777Z,48.55
2023-05-20T00:45:41.608Z,48.59
2023-05-20T00:48:09.842Z,48.57
2023-05-20T00:50:37.299Z,48.69
2023-05-20T00:53:06.000Z,49.23
2023-05-20T00:55:33.382Z,48.93
2023-05-20T00:58:00.920Z,48.97
2023-05-20T01:00:28.003Z,49.11
2023-05-20T01:02:57.040Z,49.06
2023-05-20T01:05:24.473Z,49.25
2023-05-20T01:07:51.773Z,49.18
2023-05-20T01:10:19.060Z,49.14
2023-05-20T01:12:54.422Z,49.63
2023-05-20T01:15:24.414Z,49.41
2023-05-20T01:17:58.096Z,49.59
2023-05-20T01:20:26.209Z,49.66
2023-05-20T01:22:57.071Z,49.54
2023-05-20T01:25:25.294Z,49.95
2023-05-20T01:27:54.368Z,49.89
2023-05-20T01:30:22.344Z,49.89
2023-05-20T01:32:55.329Z,50.01
2023-05-20T01:35:23.284Z,49.89
2023-05-20T01:37:53.170Z,49.98
2023-05-20T01:40:21.573Z,50.06
2023-05-20T01:42:53.362Z,50.24
2023-05-20T01:45:21.560Z,50.07
2023-05-20T01:47:50.240Z,50.56
2023-05-20T01:50:17.425Z,50.48
2023-05-20T01:52:44.577Z,50.77
2023-05-20T01:55:11.846Z,50.67
2023-05-20T01:57:38.945Z,50.53
2023-05-20T02:00:06.966Z,50.67
2023-05-20T02:02:41.363Z,50.80
2023-05-20T02:05:11.252Z,50.77
2023-05-20T02:07:38.522Z,50.79
2023-05-20T02:10:06.500Z,51.18
2023-05-20T02:12:36.937Z,50.95
2023-05-20T02:15:06.505Z,51.06
2023-05-20T02:17:34.815Z,51.23
2023-05-20T02:20:22.080Z,51.40
2023-05-20T02:22:49.239Z,51.73
2023-05-20T02:25:16.407Z,51.81
2023-05-20T02:27:44.696Z,52.01
2023-05-20T02:30:13.242Z,51.98
2023-05-20T02:32:41.658Z,52.21
2023-05-20T02:35:09.532Z,52.25
2023-05-20T02:37:39.130Z,52.53
2023-05-20T02:40:07.205Z,52.57
2023-05-20T02:42:34.306Z,52.78
2023-05-20T02:45:01.387Z,52.37
2023-05-20T02:47:29.047Z,52.97
2023-05-20T02:49:56.642Z,52.58
2023-05-20T02:52:23.740Z,52.83
2023-05-20T02:54:50.953Z,52.62
2023-05-20T02:57:18.902Z,52.55
2023-05-20T02:59:46.220Z,52.76
2023-05-20T03:02:13.496Z,52.83
2023-05-20T03:04:41.197Z,53.21
2023-05-20T03:07:09.154Z,53.03
2023-05-20T03:09:36.769Z,53.03
2023-05-20T03:12:05.587Z,53.40
2023-05-20T03:14:32.747Z,53.33
2023-05-20T03:17:00.273Z,53.39
2023-05-20T03:19:27.593Z,53.70
2023-05-20T03:21:54.952Z,53.80
2023-05-20T03:24:23.639Z,54.02
2023-05-20T03:26:51.033Z,54.15
2023-05-20T03:29:18.461Z,54.07
2023-05-20T03:31:46.533Z,54.12
2023-05-20T03:34:14.148Z,54.00
2023-05-20T03:36:41.596Z,53.83
2023-05-20T03:39:08.850Z,54.20
2023-05-20T03:41:36.243Z,54.19
2023-05-20T03:44:03.799Z,53.96
2023-05-20T03:46:32.750Z,54.40
2023-05-20T03:49:02.177Z,54.48
2023-05-20T03:51:29.348Z,54.80
2023-05-20T03:54:02.761Z,54.58
2023-05-20T03:56:29.844Z,54.54
2023-05-20T03:58:57.278Z,54.89
2023-05-20T04:01:26.064Z,55.04
2023-05-20T04:03:53.711Z,54.89
2023-05-20T04:06:22.714Z,54.78
2023-05-20T04:08:51.164Z,54.88
2023-05-20T04:11:21.808Z,55.07
2023-05-20T04:13:49.139Z,55.21
2023-05-20T04:16:16.862Z,55.17
2023-05-20T04:18:46.201Z,55.34
2023-05-20T04:21:14.238Z,55.18
2023-05-20T04:23:41.864Z,54.93
2023-05-20T04:26:09.156Z,55.11
2023-05-20T04:28:37.902Z,54.92
2023-05-20T04:31:06.188Z,54.95
2023-05-20T04:33:39.745Z,54.75
2023-05-20T04:36:09.998Z,55.09
2023-05-20T04:38:37.492Z,55.08
2023-05-20T04:41:04.895Z,54.77
2023-05-20T04:43:32.065Z,54.94
2023-05-20T04:46:06.214Z,55.14
2023-05-20T04:48:34.586Z,54.82
2023-05-20T04:51:02.340Z,54.93
2023-05-20T04:53:31.997Z,54.89
2023-05-20T04:56:03.439Z,55.12
2023-05-20T04:58:31.905Z,55.04
2023-05-20T05:01:00.260Z,54.97
2023-05-20T05:03:27.741Z,54.98
2023-05-20T05:05:59.110Z,55.16
2023-05-20T05:08:27.161Z,54.91
2023-05-20T05:10:54.566Z,54.68
2023-05-20T05:13:21.792Z,54.57
2023-05-20T05:15:49.370Z,54.25
2023-05-20T05:18:18.722Z,54.18
2023-05-20T05:20:46.578Z,54.21
2023-05-20T05:23:14.359Z,54.26
2023-05-20T05:25:41.832Z,54.18
2023-05-20T05:28:08.871Z,53.86
2023-05-20T05:30:37.683Z,53.91
2023-05-20T05:33:05.947Z,53.78
2023-05-20T05:35:33.427Z,53.69
2023-05-20T05:38:01.052Z,53.53
2023-05-20T05:40:29.378Z,53.69
2023-05-20T05:42:56.466Z,53.42
2023-05-20T05:45:23.596Z,53.41
2023-05-20T05:47:50.848Z,53.54
2023-05-20T05:50:18.134Z,53.16
2023-05-20T05:52:45.198Z,52.95
2023-05-20T05:55:12.932Z,52.68
2023-05-20T05:57:40.093Z,52.65
2023-05-20T06:00:08.160Z,52.67
2023-05-20T06:02:47.967Z,52.60
2023-05-20T06:05:29.708Z,52.16
2023-05-20T06:07:57.456Z,52.17
2023-05-20T06:10:25.281Z,52.06
2023-05-20T06:12:52.710Z,51.96
2023-05-20T06:15:20.448Z,51.94
2023-05-20T06:17:47.770Z,52.18
2023-05-20T06:20:16.377Z,52.02
2023-05-20T06:22:44.267Z,51.59
2023-05-20T06:25:13.463Z,51.60
2023-05-20T06:27:41.401Z,51.21
2023-05-20T06:30:12.036Z,50.94
2023-05-20T06:32:39.165Z,51.00
2023-05-20T06:35:06.750Z,50.44
2023-05-20T06:37:34.273Z,50.34
2023-05-20T06:40:01.997Z,49.96
2023-05-20T06:42:33.127Z,50.13
2023-05-20T06:45:04.828Z,49.86
2023-05-20T06:47:42.694Z,49.90
2023-05-20T06:50:10.914Z,49.67
2023-05-20T06:52:38.057Z,49.52
2023-05-20T06:55:05.885Z,49.40
2023-05-20T06:57:34.416Z,49.12
2023-05-20T07:00:01.810Z,48.69
2023-05-20T07:02:34.051Z,48.64
2023-05-20T07:05:01.499Z,48.40
2023-05-20T07:07:31.873Z,48.08
2023-05-20T07:09:59.165Z,47.14
2023-05-20T07:12:26.352Z,46.76
2023-05-20T07:14:53.409Z,46.88
2023-05-20T07:17:21.545Z,46.39
2023-05-20T07:19:48.641Z,46.81
2023-05-20T07:22:16.061Z,46.71
2023-05-20T07:25:07.062Z,45.97
2023-05-20T07:27:36.851Z,45.38
2023-05-20T07:30:04.724Z,44.92
2023-05-20T07:32:33.726Z,44.72
2023-05-20T07:35:01.574Z,44.20
2023-05-20T07:37:30.725Z,44.38
2023-05-20T07:39:57.850Z,44.48
2023-05-20T07:42:25.523Z,44.28
2023-05-20T07:44:58.190Z,43.81
2023-05-20T07:47:25.522Z,43.90
2023-05-20T07:49:53.493Z,43.71
2023-05-20T07:52:21.046Z,43.70
2023-05-20T07:54:48.388Z,43.22
2023-05-20T07:57:15.622Z,43.20
2023-05-20T07:59:42.913Z,42.66
2023-05-20T08:02:10.136Z,42.58
2023-05-20T08:04:37.358Z,42.38
2023-05-20T08:07:04.867Z,42.01
2023-05-20T08:09:41.730Z,42.04
2023-05-20T08:12:08.848Z,41.95
2023-05-20T08:14:36.014Z,41.83
2023-05-20T08:17:04.142Z,41.79
2023-05-20T08:19:31.576Z,42.02
2023-05-20T08:21:58.745Z,41.61
2023-05-20T08:24:25.838Z,41.58
2023-05-20T08:26:53.618Z,41.50
2023-05-20T08:29:23.914Z,41.15
2023-05-20T08:31:52.356Z,41.46
2023-05-20T08:34:20.334Z,41.57
2023-05-20T08:36:47.422Z,41.71
2023-05-20T08:39:15.381Z,41.81
2023-05-20T08:41:42.814Z,41.65
2023-05-20T08:44:11.749Z,41.55
2023-05-20T08:46:41.771Z,41.43
2023-05-20T08:49:09.048Z,41.43
2023-05-20T08:51:37.681Z,41.38
2023-05-20T08:54:05.276Z,41.53
2023-05-20T08:56:33.999Z,41.95
2023-05-20T08:59:01.507Z,41.99
2023-05-20T09:01:28.803Z,41.95
2023-05-20T09:03:56.211Z,41.71
2023-05-20T09:06:24.263Z,41.95
2023-05-20T09:08:52.058Z,41.91
2023-05-20T09:11:21.871Z,41.88
2023-05-20T09:13:50.560Z,42.15
2023-05-20T09:16:17.721Z,42.31
2023-05-20T09:18:44.863Z,42.40
2023-05-20T09:21:11.975Z,42.29
2023-05-20T09:23:39.102Z,42.28
2023-05-20T09:26:06.956Z,42.30
2023-05-20T09:28:36.166Z,42.75
2023-05-20T09:31:03.348Z,42.62
2023-05-20T09:33:32.318Z,41.99
2023-05-20T09:36:08.268Z,39.99
2023-05-20T09:38:39.853Z,40.87
2023-05-20T09:41:11.804Z,41.23
2023-05-20T09:43:40.606Z,41.37
2023-05-20T09:46:09.331Z,41.34
2023-05-20T09:48:40.007Z,41.32
2023-05-20T09:51:08.165Z,41.81
2023-05-20T09:53:36.302Z,42.06
2023-05-20T09:56:03.646Z,42.20
2023-05-20T09:58:31.582Z,42.20
2023-05-20T10:00:58.931Z,42.43
2023-05-20T10:03:28.339Z,42.48
2023-05-20T10:06:34.353Z,43.03
2023-05-20T10:09:37.944Z,40.81
2023-05-20T10:12:14.513Z,41.68
2023-05-20T10:15:07.459Z,41.09
2023-05-20T10:18:09.184Z,41.21
2023-05-20T10:20:49.976Z,40.63
2023-05-20T10:23:43.462Z,40.22
2023-05-20T10:26:11.233Z,41.08
2023-05-20T10:28:41.045Z,40.94
2023-05-20T10:31:24.195Z,41.79
2023-05-20T10:33:53.566Z,41.22
2023-05-20T10:36:28.063Z,41.46
2023-05-20T10:38:59.376Z,41.19
2023-05-20T10:41:29.489Z,40.76
2023-05-20T10:44:06.840Z,39.36
2023-05-20T10:46:53.794Z,40.20
2023-05-20T10:49:26.847Z,40.68
2023-05-20T10:51:55.703Z,40.85
2023-05-20T10:54:23.483Z,40.86
2023-05-20T10:56:54.274Z,41.07
2023-05-20T10:59:22.364Z,41.19
2023-05-20T11:01:49.737Z,40.32
2023-05-20T11:04:19.921Z,40.54
2023-05-20T11:06:54.414Z,40.09
2023-05-20T11:09:22.538Z,40.51
2023-05-20T11:11:51.496Z,40.01
2023-05-20T11:14:20.251Z,40.30
2023-05-20T11:16:51.317Z,40.48
2023-05-20T11:19:19.273Z,40.62
2023-05-20T11:21:47.320Z,40.54
2023-05-20T11:24:22.262Z,40.46
2023-05-20T11:26:49.433Z,40.45
2023-05-20T11:29:16.637Z,40.72
2023-05-20T11:31:43.705Z,40.83
2023-05-20T11:34:10.967Z,40.80
2023-05-20T11:36:42.731Z,40.88
2023-05-20T11:39:14.974Z,40.99
2023-05-20T11:41:44.950Z,40.86
2023-05-20T11:44:15.931Z,41.19
2023-05-20T11:46:44.638Z,41.04
2023-05-20T11:49:13.840Z,40.73
2023-05-20T11:51:41.681Z,40.38
2023-05-20T11:54:09.177Z,39.83
2023-05-20T11:56:41.568Z,40.06
2023-05-20T11:59:10.838Z,40.25
2023-05-20T12:01:43.535Z,39.52
2023-05-20T12:04:12.117Z,39.34
2023-05-20T12:06:40.185Z,39.55
2023-05-20T12:09:08.841Z,39.66
2023-05-20T12:11:37.495Z,39.30
2023-05-20T12:14:04.885Z,38.33
2023-05-20T12:16:36.684Z,38.11
2023-05-20T12:19:04.506Z,38.07
2023-05-20T12:21:32.295Z,38.65
2023-05-20T12:24:00.026Z,38.40
2023-05-20T12:26:29.086Z,38.07
2023-05-20T12:28:56.634Z,37.81
2023-05-20T12:31:24.579Z,37.27
2023-05-20T12:33:51.756Z,37.04
2023-05-20T12:36:19.859Z,36.63
2023-05-20T12:38:47.433Z,36.53
2023-05-20T12:41:14.673Z,36.81
2023-05-20T12:43:41.783Z,37.49
2023-05-20T12:46:08.908Z,37.68
2023-05-20T12:48:37.072Z,37.81
2023-05-20T12:51:04.516Z,37.82
2023-05-20T12:53:31.650Z,37.90
2023-05-20T12:55:58.765Z,37.84
2023-05-20T12:58:25.855Z,38.07
2023-05-20T13:00:52.948Z,38.11
2023-05-20T13:03:20.227Z,37.83
2023-05-20T13:05:47.477Z,37.97
2023-05-20T13:08:15.031Z,38.01
2023-05-20T13:10:42.277Z,37.72
2023-05-20T13:13:09.383Z,37.91
2023-05-20T13:15:36.983Z,37.87
2023-05-20T13:18:06.864Z,37.92
2023-05-20T13:20:34.483Z,38.16
2023-05-20T13:23:01.947Z,38.16
2023-05-20T13:25:29.402Z,38.32
2023-05-20T13:27:56.524Z,38.19
2023-05-20T13:30:23.602Z,38.37
2023-05-20T13:32:50.758Z,39.02
2023-05-20T13:35:18.375Z,38.96
2023-05-20T13:37:45.589Z,39.32
2023-05-20T13:40:13.139Z,39.38
2023-05-20T13:42:40.220Z,39.69
2023-05-20T13:45:07.919Z,39.39
2023-05-20T13:47:35.023Z,39.86
2023-05-20T13:50:06.514Z,39.78
2023-05-20T13:52:33.578Z,39.67
2023-05-20T13:55:00.644Z,39.14
2023-05-20T13:57:27.926Z,39.08
2023-05-20T13:59:54.905Z,39.34
2023-05-20T14:02:22.187Z,39.33
2023-05-20T14:04:49.301Z,39.46
2023-05-20T14:07:16.602Z,39.14
2023-05-20T14:09:43.737Z,39.25
2023-05-20T14:12:11.061Z,39.35
2023-05-20T14:14:38.170Z,39.57
2023-05-20T14:17:05.257Z,39.64
2023-05-20T14:19:32.490Z,39.97
2023-05-20T14:22:01.329Z,39.78
2023-05-20T14:24:28.755Z,40.29
2023-05-20T14:26:56.380Z,40.30
2023-05-20T14:29:23.501Z,40.12
2023-05-20T14:31:50.793Z,40.49
2023-05-20T14:34:18.073Z,40.12
2023-05-20T14:36:45.250Z,40.17
2023-05-20T14:39:12.341Z,40.56
2023-05-20T14:41:39.444Z,40.53
2023-05-20T14:44:06.801Z,40.67
2023-05-20T14:46:34.177Z,40.67
2023-05-20T14:49:01.593Z,40.54
2023-05-20T14:51:28.640Z,40.27
2023-05-20T14:53:55.749Z,39.35
2023-05-20T14:56:23.241Z,39.46
2023-05-20T14:58:50.277Z,39.61
2023-05-20T15:01:17.751Z,39.34
2023-05-20T15:03:44.932Z,39.13
2023-05-20T15:06:13.397Z,39.22
2023-05-20T15:08:40.460Z,39.48
2023-05-20T15:11:07.497Z,39.35
2023-05-20T15:13:34.517Z,39.39
2023-05-20T15:16:01.672Z,39.57
2023-05-20T15:18:29.150Z,39.16
2023-05-20T15:20:56.169Z,39.13
2023-05-20T15:23:23.251Z,39.18
2023-05-20T15:25:50.540Z,39.33
2023-05-20T15:28:19.866Z,39.48
2023-05-20T15:30:51.671Z,39.53
2023-05-20T15:33:18.837Z,39.42
2023-05-20T15:35:45.937Z,39.88
2023-05-20T15:38:14.176Z,39.66
2023-05-20T15:40:41.508Z,39.76
2023-05-20T15:43:08.642Z,39.69
2023-05-20T15:45:35.837Z,39.66
2023-05-20T15:48:02.942Z,39.68
2023-05-20T15:50:30.204Z,39.93
2023-05-20T15:52:57.352Z,40.19
2023-05-20T15:55:24.500Z,39.80
2023-05-20T15:57:51.787Z,39.87
2023-05-20T16:00:20.355Z,39.84
2023-05-20T16:02:48.135Z,40.10
2023-05-20T16:05:15.823Z,39.97
2023-05-20T16:07:42.981Z,39.98
2023-05-20T16:10:10.461Z,40.15
2023-05-20T16:12:37.583Z,40.01
2023-05-20T16:15:05.150Z,39.71
2023-05-20T16:17:32.764Z,39.69
2023-05-20T16:19:59.901Z,39.74
2023-05-20T16:22:26.951Z,39.54
2023-05-20T16:24:54.204Z,39.51
2023-05-20T16:27:21.298Z,39.48
2023-05-20T16:29:49.931Z,39.89
2023-05-20T16:32:16.972Z,40.02
2023-05-20T16:34:43.982Z,40.62
2023-05-20T16:37:11.980Z,40.86
2023-05-20T16:39:39.212Z,40.84
2023-05-20T16:42:09.007Z,41.22
2023-05-20T16:44:39.347Z,41.66
2023-05-20T16:47:07.502Z,41.77
2023-05-20T16:49:34.845Z,42.22
2023-05-20T16:52:02.009Z,42.55
2023-05-20T16:54:29.183Z,43.02
2023-05-20T16:56:56.586Z,43.20
2023-05-20T16:59:25.876Z,43.41
2023-05-20T17:01:53.034Z,43.57
2023-05-20T17:04:20.100Z,44.32
2023-05-20T17:06:49.940Z,43.97
2023-05-20T17:09:17.202Z,44.29
2023-05-20T17:11:44.733Z,44.26
2023-05-20T17:14:11.949Z,44.56
2023-05-20T17:16:39.081Z,44.84
2023-05-20T17:19:06.302Z,44.88
2023-05-20T17:21:34.723Z,45.47
2023-05-20T17:24:01.813Z,45.73
2023-05-20T17:26:28.937Z,45.86
2023-05-20T17:28:56.140Z,46.39
2023-05-20T17:31:23.223Z,47.04
2023-05-20T17:33:50.514Z,47.79
2023-05-20T17:36:17.834Z,48.03
2023-05-20T17:38:44.917Z,49.04
2023-05-20T17:41:12.027Z,50.34
2023-05-20T17:43:39.150Z,50.90
2023-05-20T17:46:06.615Z,51.61
2023-05-20T17:48:33.698Z,52.13
2023-05-20T17:51:00.892Z,52.49
2023-05-20T17:53:28.118Z,53.14
2023-05-20T17:55:55.379Z,53.50
2023-05-20T17:58:25.063Z,53.79
2023-05-20T18:00:52.403Z,54.40
2023-05-20T18:03:19.975Z,54.97
2023-05-20T18:05:47.756Z,55.40
2023-05-20T18:08:14.995Z,56.64
2023-05-20T18:10:42.122Z,57.31
2023-05-20T18:13:09.319Z,57.92
2023-05-20T18:15:36.511Z,58.73
2023-05-20T18:18:03.770Z,59.24
2023-05-20T18:20:30.978Z,60.19
2023-05-20T18:22:58.742Z,60.12
2023-05-20T18:25:26.201Z,60.58
2023-05-20T18:27:53.594Z,60.80
2023-05-20T18:30:20.715Z,61.72
2023-05-20T18:32:47.870Z,61.49
2023-05-20T18:35:15.019Z,61.39
2023-05-20T18:37:42.165Z,62.27
2023-05-20T18:40:09.636Z,62.02
2023-05-20T18:42:37.322Z,62.76
2023-05-20T18:45:04.863Z,62.86
2023-05-20T18:47:32.753Z,62.71
2023-05-20T18:49:59.956Z,62.30
2023-05-20T18:52:27.055Z,62.55
2023-05-20T18:54:54.100Z,62.65
2023-05-20T18:57:22.792Z,63.19
2023-05-20T18:59:49.913Z,63.59
2023-05-20T19:02:17.484Z,63.71
2023-05-20T19:04:44.921Z,63.55
2023-05-20T19:07:12.106Z,63.63
2023-05-20T19:09:39.152Z,63.69
2023-05-20T19:12:06.863Z,63.83
2023-05-20T19:14:33.946Z,63.71
2023-05-20T19:17:01.372Z,63.76
2023-05-20T19:19:28.531Z,64.03
2023-05-20T19:21:55.781Z,64.30
2023-05-20T19:24:22.923Z,64.36
2023-05-20T19:26:50.204Z,64.61
2023-05-20T19:29:17.290Z,64.83
2023-05-20T19:31:44.865Z,64.78
2023-05-20T19:34:11.924Z,64.92
2023-05-20T19:36:40.460Z,65.23
2023-05-20T19:39:08.112Z,65.14
2023-05-20T19:41:35.352Z,64.94
2023-05-20T19:44:02.599Z,65.20
2023-05-20T19:46:29.851Z,65.24
2023-05-20T19:48:58.317Z,64.94
2023-05-20T19:51:25.820Z,64.51
2023-05-20T19:53:53.019Z,64.92
2023-05-20T19:56:22.009Z,64.78
2023-05-20T19:58:49.084Z,64.74
2023-05-20T20:01:19.549Z,65.10
2023-05-20T20:03:46.675Z,65.28
2023-05-20T20:06:13.745Z,65.87
2023-05-20T20:08:41.762Z,66.10
2023-05-20T20:11:09.367Z,65.60
2023-05-20T20:13:36.491Z,65.62
2023-05-20T20:16:03.708Z,65.83
2023-05-20T20:18:32.451Z,66.34
2023-05-20T20:21:06.086Z,66.18
2023-05-20T20:23:33.493Z,66.70
2023-05-20T20:26:00.595Z,66.46
2023-05-20T20:28:27.778Z,66.53
2023-05-20T20:30:54.876Z,66.85
2023-05-20T20:33:22.076Z,66.84
2023-05-20T20:35:49.302Z,67.02
2023-05-20T20:38:16.420Z,67.59
2023-05-20T20:40:44.983Z,67.56
2023-05-20T20:43:20.549Z,68.06
2023-05-20T20:45:50.783Z,68.35
2023-05-20T20:48:18.987Z,68.43
2023-05-20T20:50:48.113Z,68.69
2023-05-20T20:53:18.470Z,68.90
2023-05-20T20:55:51.375Z,68.38
2023-05-20T20:58:19.017Z,68.94
2023-05-20T21:00:48.794Z,68.82
2023-05-20T21:03:16.311Z,68.79
2023-05-20T21:05:44.569Z,68.75
2023-05-20T21:08:13.361Z,68.58
2023-05-20T21:10:40.765Z,68.68
2023-05-20T21:13:08.188Z,68.86
2023-05-20T21:15:35.580Z,68.82
2023-05-20T21:18:02.961Z,69.10
2023-05-20T21:20:30.126Z,69.21
2023-05-20T21:22:57.153Z,69.51
2023-05-20T21:25:24.236Z,69.56
2023-05-20T21:27:51.630Z,69.69
2023-05-20T21:30:20.186Z,69.90
2023-05-20T21:32:47.398Z,69.86
2023-05-20T21:35:14.861Z,70.38
2023-05-20T21:37:42.204Z,70.44
2023-05-20T21:40:09.624Z,70.25
2023-05-20T21:42:36.842Z,70.39
2023-05-20T21:45:04.306Z,70.52
2023-05-20T21:47:33.410Z,70.29
2023-05-20T21:50:00.544Z,70.56
2023-05-20T21:52:27.721Z,70.65
2023-05-20T21:54:55.065Z,70.61
2023-05-20T21:57:22.333Z,70.72
2023-05-20T21:59:49.453Z,70.54
2023-05-20T22:02:17.663Z,70.65
2023-05-20T22:04:44.737Z,70.90
2023-05-20T22:07:11.836Z,70.90
2023-05-20T22:09:38.861Z,71.44
2023-05-20T22:12:05.983Z,71.70
2023-05-20T22:14:33.108Z,71.61
2023-05-20T22:17:00.190Z,71.45
2023-05-20T22:19:28.178Z,71.13
2023-05-20T22:21:55.770Z,71.40
2023-05-20T22:24:23.097Z,71.96
2023-05-20T22:26:50.322Z,71.87
2023-05-20T22:29:17.520Z,71.98
2023-05-20T22:31:44.825Z,72.07
2023-05-20T22:34:12.067Z,72.15
2023-05-20T22:36:39.610Z,72.18
2023-05-20T22:39:07.201Z,72.29
2023-05-20T22:41:34.287Z,72.29
2023-05-20T22:44:01.506Z,72.11
2023-05-20T22:46:28.779Z,72.29
2023-05-20T22:48:58.455Z,71.69
2023-05-20T22:51:25.585Z,71.34
2023-05-20T22:53:52.852Z,71.37
2023-05-20T22:56:20.076Z,71.64
2023-05-20T22:58:47.391Z,71.49
2023-05-20T23:01:16.826Z,71.64
2023-05-20T23:03:47.311Z,71.91
2023-05-20T23:06:14.413Z,71.91
2023-05-20T23:08:43.036Z,71.88
2023-05-20T23:11:10.423Z,72.02
2023-05-20T23:13:37.617Z,71.87
2023-05-20T23:16:06.149Z,72.02
2023-05-20T23:18:33.502Z,71.91
2023-05-20T23:21:00.804Z,72.19
2023-05-20T23:23:31.236Z,72.04
2023-05-20T23:26:00.031Z,72.22
2023-05-20T23:28:27.601Z,72.05
2023-05-20T23:30:54.932Z,72.11
2023-05-20T23:33:25.795Z,71.92
2023-05-20T23:35:53.468Z,72.17
2023-05-20T23:38:21.261Z,71.83
2023-05-20T23:40:49.392Z,71.97
2023-05-20T23:43:16.886Z,72.26
2023-05-20T23:45:43.979Z,72.29
2023-05-20T23:48:13.317Z,72.34
2023-05-20T23:50:40.888Z,72.24
2023-05-20T23:53:08.111Z,72.22
2023-05-20T23:55:35.516Z,72.44
2023-05-20T23:58:02.976Z,72.42
